sensor_id;sensor_type;location;lat;lon;timestamp;pressure;altitude;pressure_sealevel;temperature
70333;BMP280;57747;43.548;-5.704;2022-08-27T00:02:09;101594.66;;;20.88
70333;BMP280;57747;43.548;-5.704;2022-08-27T00:04:35;101584.53;;;20.88
70333;BMP280;57747;43.548;-5.704;2022-08-27T00:07:01;101583.81;;;20.79
70333;BMP280;57747;43.548;-5.704;2022-08-27T00:09:27;101585.41;;;20.80
70333;BMP280;57747;43.548;-5.704;2022-08-27T00:11:52;101573.53;;;20.84
70333;BMP280;57747;43.548;-5.704;2022-08-27T00:14:18;101588.56;;;20.91
70333;BMP280;57747;43.548;-5.704;2022-08-27T00:16:44;101584.53;;;20.88
70333;BMP280;57747;43.548;-5.704;2022-08-27T00:19:09;101585.38;;;20.89
70333;BMP280;57747;43.548;-5.704;2022-08-27T00:21:35;101580.38;;;20.91
70333;BMP280;57747;43.548;-5.704;2022-08-27T00:24:01;101576.84;;;20.90
70333;BMP280;57747;43.548;-5.704;2022-08-27T00:26:26;101584.25;;;20.90
70333;BMP280;57747;43.548;-5.704;2022-08-27T00:28:52;101593.41;;;20.85
70333;BMP280;57747;43.548;-5.704;2022-08-27T00:31:18;101591.97;;;20.79
70333;BMP280;57747;43.548;-5.704;2022-08-27T00:33:43;101585.88;;;20.82
70333;BMP280;57747;43.548;-5.704;2022-08-27T00:36:09;101583.16;;;20.82
70333;BMP280;57747;43.548;-5.704;2022-08-27T00:38:35;101572.72;;;20.84
70333;BMP280;57747;43.548;-5.704;2022-08-27T00:41:00;101578.03;;;20.80
70333;BMP280;57747;43.548;-5.704;2022-08-27T00:43:29;101583.00;;;20.87
70333;BMP280;57747;43.548;-5.704;2022-08-27T00:45:59;101582.38;;;20.81
70333;BMP280;57747;43.548;-5.704;2022-08-27T00:48:26;101579.97;;;20.80
70333;BMP280;57747;43.548;-5.704;2022-08-27T00:50:53;101576.78;;;20.78
70333;BMP280;57747;43.548;-5.704;2022-08-27T00:53:22;101569.44;;;20.78
70333;BMP280;57747;43.548;-5.704;2022-08-27T00:55:50;101565.66;;;20.83
70333;BMP280;57747;43.548;-5.704;2022-08-27T00:58:18;101566.69;;;20.78
70333;BMP280;57747;43.548;-5.704;2022-08-27T01:00:45;101563.00;;;20.74
70333;BMP280;57747;43.548;-5.704;2022-08-27T01:03:14;101555.91;;;20.82
70333;BMP280;57747;43.548;-5.704;2022-08-27T01:05:40;101566.47;;;20.83
70333;BMP280;57747;43.548;-5.704;2022-08-27T01:08:12;101551.78;;;20.76
70333;BMP280;57747;43.548;-5.704;2022-08-27T01:10:38;101552.38;;;20.81
70333;BMP280;57747;43.548;-5.704;2022-08-27T01:13:08;101550.13;;;20.83
70333;BMP280;57747;43.548;-5.704;2022-08-27T01:15:34;101549.47;;;20.87
70333;BMP280;57747;43.548;-5.704;2022-08-27T01:18:03;101537.91;;;20.90
70333;BMP280;57747;43.548;-5.704;2022-08-27T01:20:30;101531.84;;;20.84
70333;BMP280;57747;43.548;-5.704;2022-08-27T01:25:42;101523.72;;;20.75
70333;BMP280;57747;43.548;-5.704;2022-08-27T01:28:08;101517.75;;;20.82
70333;BMP280;57747;43.548;-5.704;2022-08-27T01:30:34;101517.09;;;20.85
70333;BMP280;57747;43.548;-5.704;2022-08-27T01:33:06;101519.81;;;20.85
70333;BMP280;57747;43.548;-5.704;2022-08-27T01:35:32;101519.34;;;20.83
70333;BMP280;57747;43.548;-5.704;2022-08-27T01:38:01;101522.75;;;20.80
70333;BMP280;57747;43.548;-5.704;2022-08-27T01:40:26;101519.97;;;20.89
70333;BMP280;57747;43.548;-5.704;2022-08-27T01:42:52;101510.41;;;20.82
70333;BMP280;57747;43.548;-5.704;2022-08-27T01:45:20;101503.59;;;20.89
70333;BMP280;57747;43.548;-5.704;2022-08-27T01:47:48;101504.25;;;20.85
70333;BMP280;57747;43.548;-5.704;2022-08-27T01:50:15;101503.16;;;20.87
70333;BMP280;57747;43.548;-5.704;2022-08-27T01:52:41;101504.59;;;20.84
70333;BMP280;57747;43.548;-5.704;2022-08-27T01:55:07;101495.50;;;20.80
70333;BMP280;57747;43.548;-5.704;2022-08-27T01:57:33;101500.88;;;20.89
70333;BMP280;57747;43.548;-5.704;2022-08-27T01:59:59;101494.13;;;20.74
70333;BMP280;57747;43.548;-5.704;2022-08-27T02:02:25;101493.22;;;20.82
70333;BMP280;57747;43.548;-5.704;2022-08-27T02:04:50;101494.56;;;20.76
70333;BMP280;57747;43.548;-5.704;2022-08-27T02:07:16;101483.97;;;20.74
70333;BMP280;57747;43.548;-5.704;2022-08-27T02:09:41;101482.84;;;20.75
70333;BMP280;57747;43.548;-5.704;2022-08-27T02:12:07;101482.28;;;20.70
70333;BMP280;57747;43.548;-5.704;2022-08-27T02:14:32;101480.25;;;20.79
70333;BMP280;57747;43.548;-5.704;2022-08-27T02:16:58;101476.28;;;20.76
70333;BMP280;57747;43.548;-5.704;2022-08-27T02:19:24;101473.31;;;20.69
70333;BMP280;57747;43.548;-5.704;2022-08-27T02:21:50;101465.47;;;20.67
70333;BMP280;57747;43.548;-5.704;2022-08-27T02:24:16;101463.38;;;20.64
70333;BMP280;57747;43.548;-5.704;2022-08-27T02:26:44;101467.84;;;20.69
70333;BMP280;57747;43.548;-5.704;2022-08-27T02:29:09;101458.91;;;20.69
70333;BMP280;57747;43.548;-5.704;2022-08-27T02:31:35;101454.50;;;20.76
70333;BMP280;57747;43.548;-5.704;2022-08-27T02:34:01;101462.09;;;20.83
70333;BMP280;57747;43.548;-5.704;2022-08-27T02:36:27;101453.63;;;20.84
70333;BMP280;57747;43.548;-5.704;2022-08-27T02:38:52;101444.44;;;20.68
70333;BMP280;57747;43.548;-5.704;2022-08-27T02:41:18;101443.84;;;20.62
70333;BMP280;57747;43.548;-5.704;2022-08-27T02:43:43;101446.94;;;20.61
70333;BMP280;57747;43.548;-5.704;2022-08-27T02:46:09;101450.53;;;20.74
70333;BMP280;57747;43.548;-5.704;2022-08-27T02:48:36;101448.66;;;20.65
70333;BMP280;57747;43.548;-5.704;2022-08-27T02:51:02;101447.78;;;20.74
70333;BMP280;57747;43.548;-5.704;2022-08-27T02:53:30;101447.25;;;20.80
70333;BMP280;57747;43.548;-5.704;2022-08-27T02:55:56;101436.22;;;20.77
70333;BMP280;57747;43.548;-5.704;2022-08-27T02:58:21;101444.00;;;20.87
70333;BMP280;57747;43.548;-5.704;2022-08-27T03:00:49;101440.88;;;20.76
70333;BMP280;57747;43.548;-5.704;2022-08-27T03:03:17;101440.47;;;20.87
70333;BMP280;57747;43.548;-5.704;2022-08-27T03:05:45;101437.16;;;20.81
70333;BMP280;57747;43.548;-5.704;2022-08-27T03:08:10;101431.38;;;20.82
70333;BMP280;57747;43.548;-5.704;2022-08-27T03:10:35;101422.28;;;20.78
70333;BMP280;57747;43.548;-5.704;2022-08-27T03:13:01;101428.72;;;20.74
70333;BMP280;57747;43.548;-5.704;2022-08-27T03:15:26;101423.28;;;20.74
70333;BMP280;57747;43.548;-5.704;2022-08-27T03:17:52;101425.50;;;20.72
70333;BMP280;57747;43.548;-5.704;2022-08-27T03:20:40;101422.34;;;20.70
70333;BMP280;57747;43.548;-5.704;2022-08-27T03:23:06;101418.38;;;20.79
70333;BMP280;57747;43.548;-5.704;2022-08-27T03:25:32;101416.28;;;20.85
70333;BMP280;57747;43.548;-5.704;2022-08-27T03:27:57;101424.25;;;20.69
70333;BMP280;57747;43.548;-5.704;2022-08-27T03:30:23;101413.13;;;20.74
70333;BMP280;57747;43.548;-5.704;2022-08-27T03:32:48;101414.13;;;20.78
70333;BMP280;57747;43.548;-5.704;2022-08-27T03:35:14;101397.28;;;20.76
70333;BMP280;57747;43.548;-5.704;2022-08-27T03:37:40;101397.59;;;20.75
70333;BMP280;57747;43.548;-5.704;2022-08-27T03:40:08;101396.66;;;20.71
70333;BMP280;57747;43.548;-5.704;2022-08-27T03:42:36;101402.47;;;20.69
70333;BMP280;57747;43.548;-5.704;2022-08-27T03:45:05;101402.84;;;20.80
70333;BMP280;57747;43.548;-5.704;2022-08-27T03:47:31;101396.16;;;20.77
70333;BMP280;57747;43.548;-5.704;2022-08-27T03:49:56;101391.69;;;20.73
70333;BMP280;57747;43.548;-5.704;2022-08-27T03:52:26;101383.03;;;20.71
70333;BMP280;57747;43.548;-5.704;2022-08-27T03:54:52;101384.31;;;20.73
70333;BMP280;57747;43.548;-5.704;2022-08-27T03:57:17;101388.19;;;20.72
70333;BMP280;57747;43.548;-5.704;2022-08-27T04:02:21;101378.75;;;20.70
70333;BMP280;57747;43.548;-5.704;2022-08-27T04:04:46;101382.63;;;20.69
70333;BMP280;57747;43.548;-5.704;2022-08-27T04:07:12;101384.66;;;20.72
70333;BMP280;57747;43.548;-5.704;2022-08-27T04:09:37;101389.44;;;20.75
70333;BMP280;57747;43.548;-5.704;2022-08-27T04:12:02;101377.28;;;20.72
70333;BMP280;57747;43.548;-5.704;2022-08-27T04:14:28;101385.22;;;20.65
70333;BMP280;57747;43.548;-5.704;2022-08-27T04:16:54;101382.81;;;20.63
70333;BMP280;57747;43.548;-5.704;2022-08-27T04:19:20;101382.25;;;20.70
70333;BMP280;57747;43.548;-5.704;2022-08-27T04:21:46;101378.88;;;20.73
70333;BMP280;57747;43.548;-5.704;2022-08-27T04:24:11;101374.69;;;20.76
70333;BMP280;57747;43.548;-5.704;2022-08-27T04:26:39;101375.81;;;20.75
70333;BMP280;57747;43.548;-5.704;2022-08-27T04:29:06;101370.38;;;20.75
70333;BMP280;57747;43.548;-5.704;2022-08-27T04:31:32;101371.03;;;20.72
70333;BMP280;57747;43.548;-5.704;2022-08-27T04:33:59;101366.38;;;20.72
70333;BMP280;57747;43.548;-5.704;2022-08-27T04:36:24;101370.03;;;20.76
70333;BMP280;57747;43.548;-5.704;2022-08-27T04:38:50;101372.28;;;20.74
70333;BMP280;57747;43.548;-5.704;2022-08-27T04:41:15;101361.16;;;20.79
70333;BMP280;57747;43.548;-5.704;2022-08-27T04:43:44;101364.72;;;20.80
70333;BMP280;57747;43.548;-5.704;2022-08-27T04:46:09;101363.41;;;20.65
70333;BMP280;57747;43.548;-5.704;2022-08-27T04:48:35;101361.03;;;20.63
70333;BMP280;57747;43.548;-5.704;2022-08-27T04:51:00;101363.88;;;20.67
70333;BMP280;57747;43.548;-5.704;2022-08-27T04:53:25;101357.16;;;20.64
70333;BMP280;57747;43.548;-5.704;2022-08-27T04:55:52;101360.53;;;20.61
70333;BMP280;57747;43.548;-5.704;2022-08-27T04:58:18;101356.03;;;20.65
70333;BMP280;57747;43.548;-5.704;2022-08-27T05:00:48;101356.28;;;20.73
70333;BMP280;57747;43.548;-5.704;2022-08-27T05:03:14;101356.50;;;20.67
70333;BMP280;57747;43.548;-5.704;2022-08-27T05:05:41;101358.44;;;20.67
70333;BMP280;57747;43.548;-5.704;2022-08-27T05:08:06;101352.06;;;20.75
70333;BMP280;57747;43.548;-5.704;2022-08-27T05:10:45;101357.88;;;20.74
70333;BMP280;57747;43.548;-5.704;2022-08-27T05:13:11;101355.38;;;20.69
70333;BMP280;57747;43.548;-5.704;2022-08-27T05:15:36;101353.97;;;20.62
70333;BMP280;57747;43.548;-5.704;2022-08-27T05:18:02;101348.31;;;20.67
70333;BMP280;57747;43.548;-5.704;2022-08-27T05:20:28;101348.88;;;20.61
70333;BMP280;57747;43.548;-5.704;2022-08-27T05:22:54;101343.97;;;20.66
70333;BMP280;57747;43.548;-5.704;2022-08-27T05:25:20;101344.34;;;20.65
70333;BMP280;57747;43.548;-5.704;2022-08-27T05:27:46;101344.06;;;20.58
70333;BMP280;57747;43.548;-5.704;2022-08-27T05:30:11;101340.81;;;20.64
70333;BMP280;57747;43.548;-5.704;2022-08-27T05:32:37;101341.06;;;20.72
70333;BMP280;57747;43.548;-5.704;2022-08-27T05:35:02;101354.34;;;20.73
70333;BMP280;57747;43.548;-5.704;2022-08-27T05:37:28;101346.91;;;20.61
70333;BMP280;57747;43.548;-5.704;2022-08-27T05:39:53;101355.50;;;20.72
70333;BMP280;57747;43.548;-5.704;2022-08-27T05:42:18;101356.16;;;20.69
70333;BMP280;57747;43.548;-5.704;2022-08-27T05:44:44;101361.69;;;20.60
70333;BMP280;57747;43.548;-5.704;2022-08-27T05:47:09;101359.47;;;20.75
70333;BMP280;57747;43.548;-5.704;2022-08-27T05:49:35;101365.56;;;20.72
70333;BMP280;57747;43.548;-5.704;2022-08-27T05:52:01;101364.59;;;20.76
70333;BMP280;57747;43.548;-5.704;2022-08-27T05:54:26;101360.38;;;20.79
70333;BMP280;57747;43.548;-5.704;2022-08-27T05:56:52;101372.50;;;20.69
70333;BMP280;57747;43.548;-5.704;2022-08-27T05:59:19;101371.72;;;20.69
70333;BMP280;57747;43.548;-5.704;2022-08-27T06:02:03;101373.16;;;20.87
70333;BMP280;57747;43.548;-5.704;2022-08-27T06:04:30;101369.53;;;20.95
70333;BMP280;57747;43.548;-5.704;2022-08-27T06:06:55;101371.75;;;20.81
70333;BMP280;57747;43.548;-5.704;2022-08-27T06:09:22;101371.56;;;20.86
70333;BMP280;57747;43.548;-5.704;2022-08-27T06:11:47;101364.53;;;20.97
70333;BMP280;57747;43.548;-5.704;2022-08-27T06:14:13;101364.22;;;21.11
70333;BMP280;57747;43.548;-5.704;2022-08-27T06:16:41;101360.50;;;21.16
70333;BMP280;57747;43.548;-5.704;2022-08-27T06:19:07;101368.88;;;21.23
70333;BMP280;57747;43.548;-5.704;2022-08-27T06:21:33;101360.41;;;21.25
70333;BMP280;57747;43.548;-5.704;2022-08-27T06:23:59;101354.81;;;21.21
70333;BMP280;57747;43.548;-5.704;2022-08-27T06:26:24;101355.06;;;21.28
70333;BMP280;57747;43.548;-5.704;2022-08-27T06:28:50;101355.72;;;21.25
70333;BMP280;57747;43.548;-5.704;2022-08-27T06:33:41;101354.34;;;21.19
70333;BMP280;57747;43.548;-5.704;2022-08-27T06:36:07;101362.22;;;21.33
70333;BMP280;57747;43.548;-5.704;2022-08-27T06:38:33;101365.63;;;21.42
70333;BMP280;57747;43.548;-5.704;2022-08-27T06:40:59;101367.41;;;21.38
70333;BMP280;57747;43.548;-5.704;2022-08-27T06:43:24;101376.88;;;21.53
70333;BMP280;57747;43.548;-5.704;2022-08-27T06:45:50;101378.94;;;21.68
70333;BMP280;57747;43.548;-5.704;2022-08-27T06:48:16;101380.31;;;21.87
70333;BMP280;57747;43.548;-5.704;2022-08-27T06:50:42;101383.94;;;21.66
70333;BMP280;57747;43.548;-5.704;2022-08-27T06:53:10;101381.78;;;21.72
70333;BMP280;57747;43.548;-5.704;2022-08-27T06:55:43;101389.16;;;21.84
70333;BMP280;57747;43.548;-5.704;2022-08-27T06:58:09;101388.81;;;21.97
70333;BMP280;57747;43.548;-5.704;2022-08-27T07:00:34;101398.47;;;21.83
70333;BMP280;57747;43.548;-5.704;2022-08-27T07:03:00;101397.31;;;21.96
70333;BMP280;57747;43.548;-5.704;2022-08-27T07:05:27;101389.25;;;21.87
70333;BMP280;57747;43.548;-5.704;2022-08-27T07:07:53;101386.09;;;21.85
70333;BMP280;57747;43.548;-5.704;2022-08-27T07:10:18;101388.69;;;21.81
70333;BMP280;57747;43.548;-5.704;2022-08-27T07:12:44;101387.75;;;22.14
70333;BMP280;57747;43.548;-5.704;2022-08-27T07:15:12;101383.78;;;22.12
70333;BMP280;57747;43.548;-5.704;2022-08-27T07:17:38;101388.13;;;22.41
70333;BMP280;57747;43.548;-5.704;2022-08-27T07:20:05;101384.41;;;22.62
70333;BMP280;57747;43.548;-5.704;2022-08-27T07:22:31;101387.94;;;22.62
70333;BMP280;57747;43.548;-5.704;2022-08-27T07:24:56;101393.66;;;22.57
70333;BMP280;57747;43.548;-5.704;2022-08-27T07:27:21;101389.63;;;22.67
70333;BMP280;57747;43.548;-5.704;2022-08-27T07:29:47;101393.03;;;23.08
70333;BMP280;57747;43.548;-5.704;2022-08-27T07:32:13;101402.84;;;22.65
70333;BMP280;57747;43.548;-5.704;2022-08-27T07:34:38;101397.63;;;23.04
70333;BMP280;57747;43.548;-5.704;2022-08-27T07:37:03;101401.41;;;23.31
70333;BMP280;57747;43.548;-5.704;2022-08-27T07:39:29;101388.34;;;23.24
70333;BMP280;57747;43.548;-5.704;2022-08-27T07:41:55;101398.59;;;23.11
70333;BMP280;57747;43.548;-5.704;2022-08-27T07:44:39;101390.81;;;23.13
70333;BMP280;57747;43.548;-5.704;2022-08-27T07:47:04;101391.91;;;23.09
70333;BMP280;57747;43.548;-5.704;2022-08-27T07:49:30;101401.56;;;22.90
70333;BMP280;57747;43.548;-5.704;2022-08-27T07:51:58;101393.91;;;22.80
70333;BMP280;57747;43.548;-5.704;2022-08-27T07:54:24;101385.03;;;22.71
70333;BMP280;57747;43.548;-5.704;2022-08-27T07:56:52;101390.03;;;22.53
70333;BMP280;57747;43.548;-5.704;2022-08-27T07:59:22;101394.31;;;22.82
70333;BMP280;57747;43.548;-5.704;2022-08-27T08:01:47;101395.47;;;22.81
70333;BMP280;57747;43.548;-5.704;2022-08-27T08:04:13;101398.94;;;22.94
70333;BMP280;57747;43.548;-5.704;2022-08-27T08:06:38;101394.91;;;23.04
70333;BMP280;57747;43.548;-5.704;2022-08-27T08:09:04;101388.38;;;23.08
70333;BMP280;57747;43.548;-5.704;2022-08-27T08:11:30;101386.69;;;23.04
70333;BMP280;57747;43.548;-5.704;2022-08-27T08:13:58;101387.84;;;23.03
70333;BMP280;57747;43.548;-5.704;2022-08-27T08:16:24;101382.81;;;23.05
70333;BMP280;57747;43.548;-5.704;2022-08-27T08:18:49;101386.72;;;22.75
70333;BMP280;57747;43.548;-5.704;2022-08-27T08:21:15;101387.81;;;22.87
70333;BMP280;57747;43.548;-5.704;2022-08-27T08:23:41;101385.31;;;22.66
70333;BMP280;57747;43.548;-5.704;2022-08-27T08:26:07;101385.66;;;22.64
70333;BMP280;57747;43.548;-5.704;2022-08-27T08:28:34;101389.06;;;22.61
70333;BMP280;57747;43.548;-5.704;2022-08-27T08:30:59;101392.72;;;22.81
70333;BMP280;57747;43.548;-5.704;2022-08-27T08:33:25;101392.47;;;22.86
70333;BMP280;57747;43.548;-5.704;2022-08-27T08:35:51;101393.94;;;22.68
70333;BMP280;57747;43.548;-5.704;2022-08-27T08:38:17;101386.72;;;22.75
70333;BMP280;57747;43.548;-5.704;2022-08-27T08:40:45;101386.34;;;22.61
70333;BMP280;57747;43.548;-5.704;2022-08-27T08:43:46;101395.06;;;22.67
70333;BMP280;57747;43.548;-5.704;2022-08-27T08:46:07;101379.41;;;22.51
70333;BMP280;57747;43.548;-5.704;2022-08-27T08:48:34;101387.06;;;22.58
70333;BMP280;57747;43.548;-5.704;2022-08-27T08:51:06;101377.09;;;22.66
70333;BMP280;57747;43.548;-5.704;2022-08-27T08:56:26;101382.84;;;22.48
70333;BMP280;57747;43.548;-5.704;2022-08-27T09:01:24;101381.47;;;23.14
70333;BMP280;57747;43.548;-5.704;2022-08-27T09:03:57;101386.97;;;22.70
70333;BMP280;57747;43.548;-5.704;2022-08-27T09:09:12;101391.41;;;22.91
70333;BMP280;57747;43.548;-5.704;2022-08-27T09:12:00;101382.09;;;22.92
70333;BMP280;57747;43.548;-5.704;2022-08-27T09:16:58;101381.72;;;23.57
70333;BMP280;57747;43.548;-5.704;2022-08-27T09:19:25;101381.25;;;24.06
70333;BMP280;57747;43.548;-5.704;2022-08-27T09:22:05;101372.25;;;24.06
70333;BMP280;57747;43.548;-5.704;2022-08-27T09:24:56;101369.09;;;24.27
70333;BMP280;57747;43.548;-5.704;2022-08-27T09:27:22;101367.91;;;24.24
70333;BMP280;57747;43.548;-5.704;2022-08-27T09:29:49;101370.88;;;24.58
70333;BMP280;57747;43.548;-5.704;2022-08-27T09:32:15;101369.28;;;24.15
70333;BMP280;57747;43.548;-5.704;2022-08-27T09:34:41;101378.50;;;24.06
70333;BMP280;57747;43.548;-5.704;2022-08-27T09:37:12;101374.72;;;23.60
70333;BMP280;57747;43.548;-5.704;2022-08-27T09:42:05;101363.94;;;23.67
70333;BMP280;57747;43.548;-5.704;2022-08-27T09:44:30;101372.16;;;23.51
70333;BMP280;57747;43.548;-5.704;2022-08-27T09:47:00;101364.06;;;23.90
70333;BMP280;57747;43.548;-5.704;2022-08-27T09:49:29;101364.56;;;23.76
70333;BMP280;57747;43.548;-5.704;2022-08-27T09:52:01;101368.28;;;23.68
70333;BMP280;57747;43.548;-5.704;2022-08-27T09:54:37;101367.06;;;23.49
70333;BMP280;57747;43.548;-5.704;2022-08-27T09:57:04;101375.88;;;23.94
70333;BMP280;57747;43.548;-5.704;2022-08-27T09:59:34;101366.25;;;24.20
70333;BMP280;57747;43.548;-5.704;2022-08-27T10:04:41;101370.16;;;23.83
70333;BMP280;57747;43.548;-5.704;2022-08-27T10:09:54;101363.63;;;24.46
70333;BMP280;57747;43.548;-5.704;2022-08-27T10:12:24;101356.88;;;23.66
70333;BMP280;57747;43.548;-5.704;2022-08-27T10:14:54;101363.38;;;23.42
70333;BMP280;57747;43.548;-5.704;2022-08-27T10:17:36;101360.38;;;23.31
70333;BMP280;57747;43.548;-5.704;2022-08-27T10:20:14;101369.78;;;23.65
70333;BMP280;57747;43.548;-5.704;2022-08-27T10:22:46;101369.78;;;24.20
70333;BMP280;57747;43.548;-5.704;2022-08-27T10:25:22;101352.19;;;24.02
70333;BMP280;57747;43.548;-5.704;2022-08-27T10:30:57;101352.81;;;24.34
70333;BMP280;57747;43.548;-5.704;2022-08-27T10:39:23;101345.31;;;24.97
70333;BMP280;57747;43.548;-5.704;2022-08-27T10:41:45;101349.53;;;24.94
70333;BMP280;57747;43.548;-5.704;2022-08-27T10:45:03;101345.47;;;25.07
70333;BMP280;57747;43.548;-5.704;2022-08-27T10:49:32;101352.34;;;25.21
70333;BMP280;57747;43.548;-5.704;2022-08-27T10:52:13;101350.56;;;25.09
70333;BMP280;57747;43.548;-5.704;2022-08-27T10:59:46;101335.25;;;24.58
70333;BMP280;57747;43.548;-5.704;2022-08-27T11:04:48;101336.97;;;24.89
70333;BMP280;57747;43.548;-5.704;2022-08-27T11:07:24;101345.84;;;24.83
70333;BMP280;57747;43.548;-5.704;2022-08-27T11:09:57;101338.97;;;24.69
70333;BMP280;57747;43.548;-5.704;2022-08-27T11:12:37;101339.59;;;25.09
70333;BMP280;57747;43.548;-5.704;2022-08-27T11:15:14;101338.94;;;24.23
70333;BMP280;57747;43.548;-5.704;2022-08-27T11:17:46;101338.31;;;24.33
70333;BMP280;57747;43.548;-5.704;2022-08-27T11:20:19;101346.13;;;24.12
70333;BMP280;57747;43.548;-5.704;2022-08-27T11:23:29;101335.13;;;24.74
70333;BMP280;57747;43.548;-5.704;2022-08-27T11:28:00;101330.34;;;24.94
70333;BMP280;57747;43.548;-5.704;2022-08-27T11:37:56;101333.63;;;25.57
70333;BMP280;57747;43.548;-5.704;2022-08-27T11:45:21;101322.03;;;25.70
70333;BMP280;57747;43.548;-5.704;2022-08-27T11:47:58;101317.66;;;25.09
70333;BMP280;57747;43.548;-5.704;2022-08-27T11:50:25;101317.63;;;25.62
70333;BMP280;57747;43.548;-5.704;2022-08-27T11:57:44;101327.66;;;25.51
70333;BMP280;57747;43.548;-5.704;2022-08-27T12:02:42;101311.81;;;25.37
70333;BMP280;57747;43.548;-5.704;2022-08-27T12:05:18;101316.19;;;25.72
70333;BMP280;57747;43.548;-5.704;2022-08-27T12:07:48;101305.38;;;25.86
70333;BMP280;57747;43.548;-5.704;2022-08-27T12:10:21;101311.25;;;25.55
70333;BMP280;57747;43.548;-5.704;2022-08-27T12:12:54;101309.22;;;25.82
70333;BMP280;57747;43.548;-5.704;2022-08-27T12:23:28;101300.94;;;25.18
70333;BMP280;57747;43.548;-5.704;2022-08-27T12:28:45;101294.56;;;25.10
70333;BMP280;57747;43.548;-5.704;2022-08-27T12:31:10;101295.50;;;25.48
70333;BMP280;57747;43.548;-5.704;2022-08-27T12:33:42;101288.59;;;25.95
70333;BMP280;57747;43.548;-5.704;2022-08-27T12:36:19;101287.78;;;25.61
70333;BMP280;57747;43.548;-5.704;2022-08-27T12:38:49;101289.69;;;25.26
70333;BMP280;57747;43.548;-5.704;2022-08-27T12:41:27;101292.00;;;25.21
70333;BMP280;57747;43.548;-5.704;2022-08-27T12:44:03;101294.63;;;25.44
70333;BMP280;57747;43.548;-5.704;2022-08-27T12:46:29;101291.31;;;24.78
70333;BMP280;57747;43.548;-5.704;2022-08-27T12:48:56;101286.84;;;25.46
70333;BMP280;57747;43.548;-5.704;2022-08-27T12:51:22;101280.78;;;25.33
70333;BMP280;57747;43.548;-5.704;2022-08-27T12:53:53;101281.47;;;25.57
70333;BMP280;57747;43.548;-5.704;2022-08-27T13:03:58;101276.44;;;25.02
70333;BMP280;57747;43.548;-5.704;2022-08-27T13:08:57;101280.22;;;25.50
70333;BMP280;57747;43.548;-5.704;2022-08-27T13:11:25;101276.56;;;25.39
70333;BMP280;57747;43.548;-5.704;2022-08-27T13:13:51;101273.19;;;25.53
70333;BMP280;57747;43.548;-5.704;2022-08-27T13:16:20;101272.28;;;25.42
70333;BMP280;57747;43.548;-5.704;2022-08-27T13:18:48;101267.94;;;25.41
70333;BMP280;57747;43.548;-5.704;2022-08-27T13:21:22;101274.53;;;25.06
70333;BMP280;57747;43.548;-5.704;2022-08-27T13:23:58;101264.50;;;24.90
70333;BMP280;57747;43.548;-5.704;2022-08-27T13:26:46;101261.53;;;24.99
70333;BMP280;57747;43.548;-5.704;2022-08-27T13:29:12;101267.47;;;24.55
70333;BMP280;57747;43.548;-5.704;2022-08-27T13:31:37;101253.63;;;25.24
70333;BMP280;57747;43.548;-5.704;2022-08-27T13:34:03;101259.25;;;25.35
70333;BMP280;57747;43.548;-5.704;2022-08-27T13:36:33;101253.97;;;25.49
70333;BMP280;57747;43.548;-5.704;2022-08-27T13:39:03;101246.72;;;24.31
70333;BMP280;57747;43.548;-5.704;2022-08-27T13:41:32;101255.69;;;24.78
70333;BMP280;57747;43.548;-5.704;2022-08-27T13:44:04;101252.00;;;24.43
70333;BMP280;57747;43.548;-5.704;2022-08-27T13:46:30;101245.78;;;24.96
70333;BMP280;57747;43.548;-5.704;2022-08-27T13:48:58;101244.09;;;24.88
70333;BMP280;57747;43.548;-5.704;2022-08-27T13:51:30;101238.59;;;24.88
70333;BMP280;57747;43.548;-5.704;2022-08-27T13:54:06;101245.09;;;24.76
70333;BMP280;57747;43.548;-5.704;2022-08-27T13:56:55;101239.16;;;24.47
70333;BMP280;57747;43.548;-5.704;2022-08-27T13:59:25;101244.75;;;24.08
70333;BMP280;57747;43.548;-5.704;2022-08-27T14:04:21;101235.56;;;24.20
70333;BMP280;57747;43.548;-5.704;2022-08-27T14:06:47;101238.22;;;24.63
70333;BMP280;57747;43.548;-5.704;2022-08-27T14:11:46;101237.63;;;24.50
70333;BMP280;57747;43.548;-5.704;2022-08-27T14:14:15;101246.50;;;24.20
70333;BMP280;57747;43.548;-5.704;2022-08-27T14:16:42;101234.63;;;24.59
70333;BMP280;57747;43.548;-5.704;2022-08-27T14:19:11;101239.69;;;24.57
70333;BMP280;57747;43.548;-5.704;2022-08-27T14:21:40;101233.25;;;24.45
70333;BMP280;57747;43.548;-5.704;2022-08-27T14:24:06;101246.44;;;24.86
70333;BMP280;57747;43.548;-5.704;2022-08-27T14:26:32;101237.44;;;24.89
70333;BMP280;57747;43.548;-5.704;2022-08-27T14:28:57;101244.63;;;24.97
70333;BMP280;57747;43.548;-5.704;2022-08-27T14:31:23;101249.31;;;24.97
70333;BMP280;57747;43.548;-5.704;2022-08-27T14:33:49;101244.50;;;25.47
70333;BMP280;57747;43.548;-5.704;2022-08-27T14:36:16;101247.91;;;25.70
70333;BMP280;57747;43.548;-5.704;2022-08-27T14:38:43;101235.84;;;25.45
70333;BMP280;57747;43.548;-5.704;2022-08-27T14:41:09;101234.38;;;25.88
70333;BMP280;57747;43.548;-5.704;2022-08-27T14:43:34;101232.41;;;25.52
70333;BMP280;57747;43.548;-5.704;2022-08-27T14:46:00;101234.22;;;25.10
70333;BMP280;57747;43.548;-5.704;2022-08-27T14:48:26;101233.97;;;25.53
70333;BMP280;57747;43.548;-5.704;2022-08-27T14:50:54;101233.84;;;25.76
70333;BMP280;57747;43.548;-5.704;2022-08-27T14:53:19;101237.56;;;25.57
70333;BMP280;57747;43.548;-5.704;2022-08-27T14:55:45;101236.81;;;25.97
70333;BMP280;57747;43.548;-5.704;2022-08-27T14:58:10;101235.09;;;25.82
70333;BMP280;57747;43.548;-5.704;2022-08-27T15:00:37;101230.75;;;26.22
70333;BMP280;57747;43.548;-5.704;2022-08-27T15:03:03;101226.13;;;25.88
70333;BMP280;57747;43.548;-5.704;2022-08-27T15:05:28;101228.56;;;25.26
70333;BMP280;57747;43.548;-5.704;2022-08-27T15:07:54;101221.81;;;25.84
70333;BMP280;57747;43.548;-5.704;2022-08-27T15:10:21;101216.44;;;25.61
70333;BMP280;57747;43.548;-5.704;2022-08-27T15:12:47;101215.25;;;25.99
70333;BMP280;57747;43.548;-5.704;2022-08-27T15:15:15;101229.16;;;25.76
70333;BMP280;57747;43.548;-5.704;2022-08-27T15:17:43;101222.06;;;26.16
70333;BMP280;57747;43.548;-5.704;2022-08-27T15:20:09;101216.47;;;25.64
70333;BMP280;57747;43.548;-5.704;2022-08-27T15:22:35;101207.25;;;26.24